sensor_id;sensor_type;location;lat;lon;timestamp;temperature;humidity
6468;DHT22;3267;48.794;9.928;2024-02-21T05:16:27;9.90;99.90
6468;DHT22;3267;48.794;9.928;2024-02-21T05:18:53;9.80;99.90
6468;DHT22;3267;48.794;9.928;2024-02-21T05:21:19;9.70;99.90
6468;DHT22;3267;48.794;9.928;2024-02-21T05:23:44;9.70;99.90
6468;DHT22;3267;48.794;9.928;2024-02-21T05:26:10;9.60;99.90
6468;DHT22;3267;48.794;9.928;2024-02-21T05:28:36;9.60;99.90
6468;DHT22;3267;48.794;9.928;2024-02-21T05:31:02;9.50;99.90
6468;DHT22;3267;48.794;9.928;2024-02-21T05:33:27;9.50;99.90
6468;DHT22;3267;48.794;9.928;2024-02-21T05:35:53;9.40;99.90
6468;DHT22;3267;48.794;9.928;2024-02-21T05:38:19;11.30;99.90
6468;DHT22;3267;48.794;9.928;2024-02-21T05:40:45;9.20;99.90
6468;DHT22;3267;48.794;9.928;2024-02-21T05:43:11;9.20;99.90
6468;DHT22;3267;48.794;9.928;2024-02-21T05:45:37;9.00;99.90
6468;DHT22;3267;48.794;9.928;2024-02-21T05:48:03;8.90;99.90
6468;DHT22;3267;48.794;9.928;2024-02-21T05:50:29;8.90;99.90
6468;DHT22;3267;48.794;9.928;2024-02-21T05:52:55;8.80;99.90
6468;DHT22;3267;48.794;9.928;2024-02-21T05:55:22;8.70;99.90
6468;DHT22;3267;48.794;9.928;2024-02-21T05:57:47;8.70;99.90
6468;DHT22;3267;48.794;9.928;2024-02-21T06:00:13;8.80;99.90
6468;DHT22;3267;48.794;9.928;2024-02-21T06:02:39;8.80;99.90
6468;DHT22;3267;48.794;9.928;2024-02-21T06:05:06;8.70;99.90
6468;DHT22;3267;48.794;9.928;2024-02-21T06:07:33;8.70;99.90
6468;DHT22;3267;48.794;9.928;2024-02-21T06:10:00;8.80;99.90
6468;DHT22;3267;48.794;9.928;2024-02-21T06:12:25;8.80;99.90
6468;DHT22;3267;48.794;9.928;2024-02-21T06:14:51;8.70;99.90
6468;DHT22;3267;48.794;9.928;2024-02-21T06:17:17;8.80;99.90
6468;DHT22;3267;48.794;9.928;2024-02-21T06:19:43;8.90;99.90
6468;DHT22;3267;48.794;9.928;2024-02-21T06:22:10;8.90;99.90
6468;DHT22;3267;48.794;9.928;2024-02-21T06:24:35;8.80;99.90
6468;DHT22;3267;48.794;9.928;2024-02-21T06:27:03;9.00;99.90
6468;DHT22;3267;48.794;9.928;2024-02-21T06:29:28;8.80;99.90
6468;DHT22;3267;48.794;9.928;2024-02-21T06:31:54;10.00;99.90
6468;DHT22;3267;48.794;9.928;2024-02-21T06:34:20;8.70;99.90
6468;DHT22;3267;48.794;9.928;2024-02-21T06:36:45;8.70;99.90
6468;DHT22;3267;48.794;9.928;2024-02-21T06:39:11;8.50;99.90
6468;DHT22;3267;48.794;9.928;2024-02-21T06:41:37;8.60;99.90
6468;DHT22;3267;48.794;9.928;2024-02-21T06:44:03;8.90;99.90
6468;DHT22;3267;48.794;9.928;2024-02-21T06:46:29;8.60;99.90
6468;DHT22;3267;48.794;9.928;2024-02-21T06:48:55;8.60;99.90
6468;DHT22;3267;48.794;9.928;2024-02-21T06:51:24;8.70;99.90
6468;DHT22;3267;48.794;9.928;2024-02-21T06:53:50;8.60;99.90
6468;DHT22;3267;48.794;9.928;2024-02-21T06:58:42;8.70;99.90
6468;DHT22;3267;48.794;9.928;2024-02-21T07:01:09;8.70;99.90
6468;DHT22;3267;48.794;9.928;2024-02-21T07:03:35;8.70;99.90
6468;DHT22;3267;48.794;9.928;2024-02-21T07:06:01;8.70;99.90
6468;DHT22;3267;48.794;9.928;2024-02-21T07:08:27;8.70;99.90
6468;DHT22;3267;48.794;9.928;2024-02-21T07:10:53;8.70;99.90
6468;DHT22;3267;48.794;9.928;2024-02-21T07:13:18;8.70;99.90
6468;DHT22;3267;48.794;9.928;2024-02-21T07:15:44;8.90;99.90
6468;DHT22;3267;48.794;9.928;2024-02-21T07:18:09;8.80;99.90
6468;DHT22;3267;48.794;9.928;2024-02-21T07:20:35;8.80;99.90
6468;DHT22;3267;48.794;9.928;2024-02-21T07:23:03;8.90;99.90
6468;DHT22;3267;48.794;9.928;2024-02-21T07:25:29;8.90;99.90
6468;DHT22;3267;48.794;9.928;2024-02-21T07:27:54;8.90;99.90
6468;DHT22;3267;48.794;9.928;2024-02-21T07:30:20;9.00;99.90
6468;DHT22;3267;48.794;9.928;2024-02-21T07:49:57;9.30;99.90
6468;DHT22;3267;48.794;9.928;2024-02-21T07:52:23;9.30;99.90
6468;DHT22;3267;48.794;9.928;2024-02-21T07:54:49;9.30;99.90
6468;DHT22;3267;48.794;9.928;2024-02-21T07:57:14;9.50;99.90
6468;DHT22;3267;48.794;9.928;2024-02-21T07:59:40;9.50;99.90
6468;DHT22;3267;48.794;9.928;2024-02-21T08:02:06;9.40;99.90
6468;DHT22;3267;48.794;9.928;2024-02-21T08:04:33;11.70;99.90
6468;DHT22;3267;48.794;9.928;2024-02-21T08:06:59;9.50;99.90
6468;DHT22;3267;48.794;9.928;2024-02-21T08:09:30;9.60;99.90
6468;DHT22;3267;48.794;9.928;2024-02-21T08:11:55;9.70;99.90
6468;DHT22;3267;48.794;9.928;2024-02-21T08:14:22;9.60;99.90
6468;DHT22;3267;48.794;9.928;2024-02-21T08:16:48;11.60;99.90
6468;DHT22;3267;48.794;9.928;2024-02-21T08:19:13;9.80;99.90
6468;DHT22;3267;48.794;9.928;2024-02-21T08:21:39;9.80;99.90
6468;DHT22;3267;48.794;9.928;2024-02-21T08:24:07;11.20;99.90
6468;DHT22;3267;48.794;9.928;2024-02-21T08:26:32;10.00;99.90
6468;DHT22;3267;48.794;9.928;2024-02-21T08:28:58;10.20;99.90
6468;DHT22;3267;48.794;9.928;2024-02-21T08:31:27;10.40;99.90
6468;DHT22;3267;48.794;9.928;2024-02-21T08:33:59;12.80;99.90
6468;DHT22;3267;48.794;9.928;2024-02-21T08:36:31;10.30;99.90
6468;DHT22;3267;48.794;9.928;2024-02-21T08:39:01;10.50;99.90
6468;DHT22;3267;48.794;9.928;2024-02-21T08:41:31;10.70;99.90
6468;DHT22;3267;48.794;9.928;2024-02-21T08:44:00;10.70;99.90
6468;DHT22;3267;48.794;9.928;2024-02-21T08:46:26;12.10;99.90
6468;DHT22;3267;48.794;9.928;2024-02-21T08:48:53;10.80;99.90
6468;DHT22;3267;48.794;9.928;2024-02-21T08:51:19;11.20;99.90
6468;DHT22;3267;48.794;9.928;2024-02-21T08:53:45;11.60;99.90
6468;DHT22;3267;48.794;9.928;2024-02-21T08:56:12;11.10;99.90
6468;DHT22;3267;48.794;9.928;2024-02-21T08:58:39;13.70;99.90
6468;DHT22;3267;48.794;9.928;2024-02-21T09:01:05;11.30;99.90
6468;DHT22;3267;48.794;9.928;2024-02-21T09:03:33;11.20;99.90
6468;DHT22;3267;48.794;9.928;2024-02-21T09:06:01;11.40;99.90
6468;DHT22;3267;48.794;9.928;2024-02-21T09:08:27;11.50;99.90
6468;DHT22;3267;48.794;9.928;2024-02-21T09:10:56;11.50;99.90
6468;DHT22;3267;48.794;9.928;2024-02-21T09:13:21;11.90;99.90
6468;DHT22;3267;48.794;9.928;2024-02-21T09:15:48;11.70;99.90
6468;DHT22;3267;48.794;9.928;2024-02-21T09:18:15;11.70;99.90
6468;DHT22;3267;48.794;9.928;2024-02-21T09:20:40;11.70;99.90
6468;DHT22;3267;48.794;9.928;2024-02-21T09:23:06;12.20;99.90
6468;DHT22;3267;48.794;9.928;2024-02-21T09:25:31;11.90;99.90
6468;DHT22;3267;48.794;9.928;2024-02-21T09:27:57;12.20;99.90
6468;DHT22;3267;48.794;9.928;2024-02-21T09:30:23;12.30;99.90
6468;DHT22;3267;48.794;9.928;2024-02-21T09:32:49;12.00;99.90
6468;DHT22;3267;48.794;9.928;2024-02-21T09:35:15;12.10;99.90
6468;DHT22;3267;48.794;9.928;2024-02-21T09:37:41;12.20;99.90
6468;DHT22;3267;48.794;9.928;2024-02-21T09:40:07;12.30;99.90
6468;DHT22;3267;48.794;9.928;2024-02-21T09:42:40;12.50;99.90
6468;DHT22;3267;48.794;9.928;2024-02-21T09:45:23;12.40;99.90
6468;DHT22;3267;48.794;9.928;2024-02-21T09:50:40;12.40;99.90
6468;DHT22;3267;48.794;9.928;2024-02-21T09:53:06;12.40;99.90
6468;DHT22;3267;48.794;9.928;2024-02-21T09:55:37;14.20;99.90
6468;DHT22;3267;48.794;9.928;2024-02-21T09:58:05;12.50;99.90
6468;DHT22;3267;48.794;9.928;2024-02-21T10:00:31;13.70;99.90
6468;DHT22;3267;48.794;9.928;2024-02-21T10:02:58;12.50;99.90
6468;DHT22;3267;48.794;9.928;2024-02-21T10:05:24;13.10;99.90
6468;DHT22;3267;48.794;9.928;2024-02-21T10:07:51;12.50;99.90
6468;DHT22;3267;48.794;9.928;2024-02-21T10:10:17;13.00;99.90
6468;DHT22;3267;48.794;9.928;2024-02-21T10:12:53;12.70;99.90
6468;DHT22;3267;48.794;9.928;2024-02-21T10:15:26;12.60;99.90
6468;DHT22;3267;48.794;9.928;2024-02-21T10:17:59;12.50;99.90
6468;DHT22;3267;48.794;9.928;2024-02-21T10:20:26;12.40;99.90
6468;DHT22;3267;48.794;9.928;2024-02-21T10:23:02;12.50;99.90
6468;DHT22;3267;48.794;9.928;2024-02-21T10:25:29;12.50;99.90
6468;DHT22;3267;48.794;9.928;2024-02-21T10:27:56;13.40;99.90
6468;DHT22;3267;48.794;9.928;2024-02-21T10:30:22;12.60;99.90
6468;DHT22;3267;48.794;9.928;2024-02-21T10:32:51;12.70;99.90
6468;DHT22;3267;48.794;9.928;2024-02-21T10:35:32;12.80;99.90
6468;DHT22;3267;48.794;9.928;2024-02-21T10:37:58;12.70;99.90
6468;DHT22;3267;48.794;9.928;2024-02-21T10:40:29;12.80;99.90
6468;DHT22;3267;48.794;9.928;2024-02-21T10:43:01;13.50;99.90
6468;DHT22;3267;48.794;9.928;2024-02-21T10:45:35;12.80;99.90
6468;DHT22;3267;48.794;9.928;2024-02-21T10:48:10;13.00;99.90
6468;DHT22;3267;48.794;9.928;2024-02-21T10:50:56;13.30;99.90
6468;DHT22;3267;48.794;9.928;2024-02-21T10:53:43;13.10;99.90
6468;DHT22;3267;48.794;9.928;2024-02-21T10:56:28;13.10;99.90
6468;DHT22;3267;48.794;9.928;2024-02-21T10:58:54;13.20;99.90
6468;DHT22;3267;48.794;9.928;2024-02-21T11:01:22;13.30;99.90
6468;DHT22;3267;48.794;9.928;2024-02-21T11:03:51;13.40;99.90
6468;DHT22;3267;48.794;9.928;2024-02-21T11:06:19;13.50;99.90
6468;DHT22;3267;48.794;9.928;2024-02-21T11:08:47;13.60;99.90
6468;DHT22;3267;48.794;9.928;2024-02-21T11:11:13;13.70;99.90
6468;DHT22;3267;48.794;9.928;2024-02-21T11:13:44;13.90;99.90
6468;DHT22;3267;48.794;9.928;2024-02-21T11:16:21;14.30;99.90
6468;DHT22;3267;48.794;9.928;2024-02-21T11:18:47;14.00;99.90
6468;DHT22;3267;48.794;9.928;2024-02-21T11:21:13;14.60;99.90
6468;DHT22;3267;48.794;9.928;2024-02-21T11:23:39;14.40;99.90
6468;DHT22;3267;48.794;9.928;2024-02-21T11:26:18;14.20;99.90
6468;DHT22;3267;48.794;9.928;2024-02-21T11:28:44;14.30;99.90
6468;DHT22;3267;48.794;9.928;2024-02-21T11:31:14;15.20;99.90
6468;DHT22;3267;48.794;9.928;2024-02-21T11:33:40;14.70;99.90
6468;DHT22;3267;48.794;9.928;2024-02-21T11:36:08;15.20;99.90
6468;DHT22;3267;48.794;9.928;2024-02-21T11:38:34;14.60;99.90
6468;DHT22;3267;48.794;9.928;2024-02-21T11:40:59;15.20;99.90
6468;DHT22;3267;48.794;9.928;2024-02-21T11:43:26;16.00;99.90
6468;DHT22;3267;48.794;9.928;2024-02-21T11:46:01;17.00;99.90
6468;DHT22;3267;48.794;9.928;2024-02-21T11:48:32;14.90;99.90
6468;DHT22;3267;48.794;9.928;2024-02-21T11:50:57;16.50;99.90
6468;DHT22;3267;48.794;9.928;2024-02-21T11:53:23;15.00;99.90
6468;DHT22;3267;48.794;9.928;2024-02-21T11:55:50;16.70;99.90
6468;DHT22;3267;48.794;9.928;2024-02-21T11:58:16;15.10;99.90
6468;DHT22;3267;48.794;9.928;2024-02-21T12:00:42;15.20;99.90
6468;DHT22;3267;48.794;9.928;2024-02-21T12:03:08;15.20;99.90
6468;DHT22;3267;48.794;9.928;2024-02-21T12:05:34;15.20;99.90
6468;DHT22;3267;48.794;9.928;2024-02-21T12:08:00;17.30;99.90
6468;DHT22;3267;48.794;9.928;2024-02-21T12:10:26;15.40;99.90
6468;DHT22;3267;48.794;9.928;2024-02-21T12:13:08;15.40;99.90
6468;DHT22;3267;48.794;9.928;2024-02-21T12:15:34;15.40;99.90
6468;DHT22;3267;48.794;9.928;2024-02-21T12:18:01;15.40;99.90
6468;DHT22;3267;48.794;9.928;2024-02-21T12:20:26;15.40;99.90
6468;DHT22;3267;48.794;9.928;2024-02-21T12:22:52;15.30;99.90
6468;DHT22;3267;48.794;9.928;2024-02-21T12:25:21;15.40;99.90
6468;DHT22;3267;48.794;9.928;2024-02-21T12:27:52;15.50;99.90
6468;DHT22;3267;48.794;9.928;2024-02-21T12:30:18;16.30;99.90
6468;DHT22;3267;48.794;9.928;2024-02-21T12:32:48;15.60;99.90
6468;DHT22;3267;48.794;9.928;2024-02-21T12:35:14;15.60;99.90
6468;DHT22;3267;48.794;9.928;2024-02-21T12:37:40;15.70;99.90
6468;DHT22;3267;48.794;9.928;2024-02-21T12:40:09;15.70;99.90
6468;DHT22;3267;48.794;9.928;2024-02-21T12:42:36;15.70;99.90
6468;DHT22;3267;48.794;9.928;2024-02-21T12:45:02;15.70;99.90
6468;DHT22;3267;48.794;9.928;2024-02-21T12:47:28;15.80;99.90
6468;DHT22;3267;48.794;9.928;2024-02-21T12:49:54;15.80;99.90
6468;DHT22;3267;48.794;9.928;2024-02-21T12:52:20;16.00;99.90
6468;DHT22;3267;48.794;9.928;2024-02-21T12:54:45;15.90;99.90
6468;DHT22;3267;48.794;9.928;2024-02-21T12:57:13;16.00;99.90
6468;DHT22;3267;48.794;9.928;2024-02-21T12:59:38;16.00;99.90
6468;DHT22;3267;48.794;9.928;2024-02-21T13:02:07;17.50;99.90
6468;DHT22;3267;48.794;9.928;2024-02-21T13:04:37;16.00;99.50
6468;DHT22;3267;48.794;9.928;2024-02-21T13:07:06;16.10;99.80
6468;DHT22;3267;48.794;9.928;2024-02-21T13:09:32;16.20;99.90
6468;DHT22;3267;48.794;9.928;2024-02-21T13:11:57;16.30;99.80
6468;DHT22;3267;48.794;9.928;2024-02-21T13:14:23;17.50;99.90
6468;DHT22;3267;48.794;9.928;2024-02-21T13:16:49;16.40;99.90
6468;DHT22;3267;48.794;9.928;2024-02-21T13:19:15;16.50;99.80
6468;DHT22;3267;48.794;9.928;2024-02-21T13:21:42;16.50;99.40
6468;DHT22;3267;48.794;9.928;2024-02-21T13:24:08;18.30;99.90
6468;DHT22;3267;48.794;9.928;2024-02-21T13:26:34;16.50;99.70
6468;DHT22;3267;48.794;9.928;2024-02-21T13:29:00;16.50;99.30
6468;DHT22;3267;48.794;9.928;2024-02-21T13:31:25;16.40;98.60
6468;DHT22;3267;48.794;9.928;2024-02-21T13:33:51;16.40;98.30
6468;DHT22;3267;48.794;9.928;2024-02-21T13:36:17;16.40;98.00
6468;DHT22;3267;48.794;9.928;2024-02-21T13:38:44;16.40;98.20
6468;DHT22;3267;48.794;9.928;2024-02-21T13:41:10;16.40;98.20
6468;DHT22;3267;48.794;9.928;2024-02-21T13:43:38;18.30;99.40
6468;DHT22;3267;48.794;9.928;2024-02-21T13:46:04;18.40;99.00
6468;DHT22;3267;48.794;9.928;2024-02-21T13:48:35;16.40;98.00
6468;DHT22;3267;48.794;9.928;2024-02-21T13:51:00;16.30;98.10
6468;DHT22;3267;48.794;9.928;2024-02-21T13:53:28;16.40;97.70
6468;DHT22;3267;48.794;9.928;2024-02-21T13:55:54;16.80;97.90
6468;DHT22;3267;48.794;9.928;2024-02-21T13:58:20;16.30;97.10
6468;DHT22;3267;48.794;9.928;2024-02-21T14:00:46;16.70;97.40
6468;DHT22;3267;48.794;9.928;2024-02-21T14:03:12;16.20;97.10
6468;DHT22;3267;48.794;9.928;2024-02-21T14:05:38;16.20;97.10
6468;DHT22;3267;48.794;9.928;2024-02-21T14:08:06;16.50;97.20
6468;DHT22;3267;48.794;9.928;2024-02-21T14:10:32;16.20;96.70
6468;DHT22;3267;48.794;9.928;2024-02-21T14:12:57;16.40;96.40
6468;DHT22;3267;48.794;9.928;2024-02-21T14:15:23;16.20;96.90
6468;DHT22;3267;48.794;9.928;2024-02-21T14:17:50;16.20;96.90
6468;DHT22;3267;48.794;9.928;2024-02-21T14:20:16;16.20;96.60
6468;DHT22;3267;48.794;9.928;2024-02-21T14:22:41;16.10;96.90
6468;DHT22;3267;48.794;9.928;2024-02-21T14:25:07;17.30;97.30
6468;DHT22;3267;48.794;9.928;2024-02-21T14:27:33;16.10;96.80
6468;DHT22;3267;48.794;9.928;2024-02-21T14:30:01;16.10;96.60
6468;DHT22;3267;48.794;9.928;2024-02-21T14:32:27;16.00;96.40
6468;DHT22;3267;48.794;9.928;2024-02-21T14:34:54;16.10;96.50
6468;DHT22;3267;48.794;9.928;2024-02-21T14:37:20;16.00;96.50
6468;DHT22;3267;48.794;9.928;2024-02-21T14:39:47;16.00;96.40
6468;DHT22;3267;48.794;9.928;2024-02-21T14:42:12;16.00;96.30
6468;DHT22;3267;48.794;9.928;2024-02-21T14:44:38;15.90;96.50
6468;DHT22;3267;48.794;9.928;2024-02-21T14:47:04;15.90;96.50
6468;DHT22;3267;48.794;9.928;2024-02-21T14:49:30;15.90;96.70
6468;DHT22;3267;48.794;9.928;2024-02-21T14:51:56;16.60;96.60
6468;DHT22;3267;48.794;9.928;2024-02-21T14:54:21;16.00;96.20
6468;DHT22;3267;48.794;9.928;2024-02-21T14:56:49;15.80;96.50
6468;DHT22;3267;48.794;9.928;2024-02-21T14:59:15;15.90;96.80
6468;DHT22;3267;48.794;9.928;2024-02-21T15:01:41;15.70;97.00
6468;DHT22;3267;48.794;9.928;2024-02-21T15:04:07;16.00;97.50
6468;DHT22;3267;48.794;9.928;2024-02-21T15:06:33;15.70;97.40
6468;DHT22;3267;48.794;9.928;2024-02-21T15:09:02;15.80;97.80
6468;DHT22;3267;48.794;9.928;2024-02-21T15:11:28;15.70;97.50
6468;DHT22;3267;48.794;9.928;2024-02-21T15:13:54;15.70;97.60
6468;DHT22;3267;48.794;9.928;2024-02-21T15:16:20;15.70;97.60
6468;DHT22;3267;48.794;9.928;2024-02-21T15:18:45;16.40;98.00
6468;DHT22;3267;48.794;9.928;2024-02-21T15:21:11;15.60;98.00
6468;DHT22;3267;48.794;9.928;2024-02-21T15:23:40;15.60;97.70
6468;DHT22;3267;48.794;9.928;2024-02-21T15:26:06;16.00;97.70
6468;DHT22;3267;48.794;9.928;2024-02-21T15:28:31;16.00;97.70
6468;DHT22;3267;48.794;9.928;2024-02-21T15:30:57;15.60;97.70
6468;DHT22;3267;48.794;9.928;2024-02-21T15:33:23;16.00;97.90
6468;DHT22;3267;48.794;9.928;2024-02-21T15:35:49;15.70;97.70
6468;DHT22;3267;48.794;9.928;2024-02-21T15:38:16;15.60;97.60
6468;DHT22;3267;48.794;9.928;2024-02-21T15:40:41;15.70;97.80
6468;DHT22;3267;48.794;9.928;2024-02-21T15:43:07;15.80;97.80
6468;DHT22;3267;48.794;9.928;2024-02-21T15:45:33;15.70;97.70
6468;DHT22;3267;48.794;9.928;2024-02-21T15:47:59;15.90;97.80
6468;DHT22;3267;48.794;9.928;2024-02-21T15:50:25;15.70;98.60
6468;DHT22;3267;48.794;9.928;2024-02-21T15:52:54;15.70;98.60
6468;DHT22;3267;48.794;9.928;2024-02-21T15:55:21;16.20;98.20
6468;DHT22;3267;48.794;9.928;2024-02-21T15:57:46;15.70;98.10
6468;DHT22;3267;48.794;9.928;2024-02-21T16:00:12;17.70;99.30
6468;DHT22;3267;48.794;9.928;2024-02-21T16:02:40;15.70;98.20
6468;DHT22;3267;48.794;9.928;2024-02-21T16:05:08;16.10;98.20
6468;DHT22;3267;48.794;9.928;2024-02-21T16:07:38;15.60;98.20
6468;DHT22;3267;48.794;9.928;2024-02-21T16:10:04;15.60;98.90
6468;DHT22;3267;48.794;9.928;2024-02-21T16:12:31;15.50;98.10
6468;DHT22;3267;48.794;9.928;2024-02-21T16:14:57;15.50;99.10
6468;DHT22;3267;48.794;9.928;2024-02-21T16:17:22;15.50;99.00
6468;DHT22;3267;48.794;9.928;2024-02-21T16:19:48;17.00;99.90
6468;DHT22;3267;48.794;9.928;2024-02-21T16:22:15;15.90;99.70
6468;DHT22;3267;48.794;9.928;2024-02-21T16:24:40;15.30;99.00
6468;DHT22;3267;48.794;9.928;2024-02-21T16:27:06;15.40;99.90
6468;DHT22;3267;48.794;9.928;2024-02-21T16:29:35;15.30;99.40
6468;DHT22;3267;48.794;9.928;2024-02-21T16:32:01;15.80;99.90
6468;DHT22;3267;48.794;9.928;2024-02-21T16:34:27;15.10;99.30
6468;DHT22;3267;48.794;9.928;2024-02-21T16:36:54;15.10;99.90
6468;DHT22;3267;48.794;9.928;2024-02-21T16:39:20;15.50;99.90
6468;DHT22;3267;48.794;9.928;2024-02-21T16:41:46;15.00;99.10
6468;DHT22;3267;48.794;9.928;2024-02-21T16:44:14;16.00;99.90
6468;DHT22;3267;48.794;9.928;2024-02-21T16:46:40;14.90;99.90
6468;DHT22;3267;48.794;9.928;2024-02-21T16:49:06;15.30;99.90
6468;DHT22;3267;48.794;9.928;2024-02-21T16:51:35;15.10;99.90
6468;DHT22;3267;48.794;9.928;2024-02-21T16:54:00;15.20;99.60
6468;DHT22;3267;48.794;9.928;2024-02-21T16:56:30;15.30;99.90
6468;DHT22;3267;48.794;9.928;2024-02-21T16:58:56;15.70;99.90
6468;DHT22;3267;48.794;9.928;2024-02-21T17:01:21;15.40;99.90
6468;DHT22;3267;48.794;9.928;2024-02-21T17:03:47;15.20;99.90
6468;DHT22;3267;48.794;9.928;2024-02-21T17:06:13;16.00;99.90
6468;DHT22;3267;48.794;9.928;2024-02-21T17:08:39;16.00;99.90
6468;DHT22;3267;48.794;9.928;2024-02-21T17:11:06;15.80;99.90
6468;DHT22;3267;48.794;9.928;2024-02-21T17:13:33;17.60;99.90
6468;DHT22;3267;48.794;9.928;2024-02-21T17:15:59;15.40;99.90
6468;DHT22;3267;48.794;9.928;2024-02-21T17:18:24;15.40;99.90
6468;DHT22;3267;48.794;9.928;2024-02-21T17:20:52;16.00;99.90
6468;DHT22;3267;48.794;9.928;2024-02-21T17:23:17;16.40;99.90
6468;DHT22;3267;48.794;9.928;2024-02-21T17:25:43;16.60;99.90
6468;DHT22;3267;48.794;9.928;2024-02-21T17:28:09;16.50;99.90
6468;DHT22;3267;48.794;9.928;2024-02-21T17:30:35;16.70;99.90
6468;DHT22;3267;48.794;9.928;2024-02-21T17:33:05;16.30;99.90
6468;DHT22;3267;48.794;9.928;2024-02-21T17:35:34;16.30;99.90
6468;DHT22;3267;48.794;9.928;2024-02-21T17:38:04;16.40;99.90
6468;DHT22;3267;48.794;9.928;2024-02-21T17:40:33;16.10;99.90
6468;DHT22;3267;48.794;9.928;2024-02-21T17:42:59;15.90;99.90
6468;DHT22;3267;48.794;9.928;2024-02-21T17:45:24;16.30;99.90
6468;DHT22;3267;48.794;9.928;2024-02-21T17:47:50;15.80;99.90
6468;DHT22;3267;48.794;9.928;2024-02-21T17:50:17;15.60;99.90
6468;DHT22;3267;48.794;9.928;2024-02-21T17:52:43;15.90;99.90
6468;DHT22;3267;48.794;9.928;2024-02-21T17:55:08;18.00;99.90
6468;DHT22;3267;48.794;9.928;2024-02-21T17:57:35;16.50;99.90
6468;DHT22;3267;48.794;9.928;2024-02-21T18:00:01;16.50;99.90
6468;DHT22;3267;48.794;9.928;2024-02-21T18:02:27;16.40;99.90
6468;DHT22;3267;48.794;9.928;2024-02-21T18:04:53;16.50;99.90
6468;DHT22;3267;48.794;9.928;2024-02-21T18:07:18;16.60;99.90
6468;DHT22;3267;48.794;9.928;2024-02-21T18:09:46;16.20;99.90
6468;DHT22;3267;48.794;9.928;2024-02-21T18:12:12;16.20;99.90
6468;DHT22;3267;48.794;9.928;2024-02-21T18:14:37;16.70;99.90
6468;DHT22;3267;48.794;9.928;2024-02-21T18:17:03;16.60;99.90
6468;DHT22;3267;48.794;9.928;2024-02-21T18:19:35;17.20;99.90
6468;DHT22;3267;48.794;9.928;2024-02-21T18:22:02;17.10;99.90
6468;DHT22;3267;48.794;9.928;2024-02-21T18:24:27;16.70;99.90
6468;DHT22;3267;48.794;9.928;2024-02-21T18:26:53;17.40;99.90
6468;DHT22;3267;48.794;9.928;2024-02-21T18:29:19;16.40;99.90
6468;DHT22;3267;48.794;9.928;2024-02-21T18:31:45;16.40;99.90
6468;DHT22;3267;48.794;9.928;2024-02-21T18:34:10;16.30;99.90
6468;DHT22;3267;48.794;9.928;2024-02-21T18:36:36;17.10;99.90
6468;DHT22;3267;48.794;9.928;2024-02-21T18:39:02;16.90;99.90
6468;DHT22;3267;48.794;9.928;2024-02-21T18:41:28;16.20;99.90
6468;DHT22;3267;48.794;9.928;2024-02-21T18:43:54;15.90;99.90
6468;DHT22;3267;48.794;9.928;2024-02-21T18:46:19;15.60;99.90
6468;DHT22;3267;48.794;9.928;2024-02-21T18:48:45;15.70;99.90
6468;DHT22;3267;48.794;9.928;2024-02-21T18:51:14;15.90;99.90
6468;DHT22;3267;48.794;9.928;2024-02-21T18:53:40;16.90;99.90
6468;DHT22;3267;48.794;9.928;2024-02-21T18:56:07;15.80;99.90
6468;DHT22;3267;48.794;9.928;2024-02-21T18:58:33;16.10;99.90
6468;DHT22;3267;48.794;9.928;2024-02-21T19:00:59;15.50;99.90
6468;DHT22;3267;48.794;9.928;2024-02-21T19:03:25;15.40;99.90
6468;DHT22;3267;48.794;9.928;2024-02-21T19:05:51;15.60;99.90
6468;DHT22;3267;48.794;9.928;2024-02-21T19:08:17;16.30;99.90
6468;DHT22;3267;48.794;9.928;2024-02-21T19:10:42;16.10;99.90
6468;DHT22;3267;48.794;9.928;2024-02-21T19:13:08;15.80;99.90
6468;DHT22;3267;48.794;9.928;2024-02-21T19:15:37;15.20;99.90
6468;DHT22;3267;48.794;9.928;2024-02-21T19:18:06;15.30;99.90
6468;DHT22;3267;48.794;9.928;2024-02-21T19:20:32;15.60;99.90
6468;DHT22;3267;48.794;9.928;2024-02-21T19:22:58;15.50;99.90
6468;DHT22;3267;48.794;9.928;2024-02-21T19:25:23;15.60;99.90
6468;DHT22;3267;48.794;9.928;2024-02-21T19:27:49;15.90;99.90
6468;DHT22;3267;48.794;9.928;2024-02-21T19:30:18;15.60;99.90
6468;DHT22;3267;48.794;9.928;2024-02-21T19:32:46;18.30;99.90
6468;DHT22;3267;48.794;9.928;2024-02-21T19:35:12;15.80;99.90
6468;DHT22;3267;48.794;9.928;2024-02-21T19:37:39;15.90;99.90
6468;DHT22;3267;48.794;9.928;2024-02-21T19:40:08;16.70;99.90
6468;DHT22;3267;48.794;9.928;2024-02-21T19:42:34;16.40;99.90
6468;DHT22;3267;48.794;9.928;2024-02-21T19:45:00;16.50;99.90
6468;DHT22;3267;48.794;9.928;2024-02-21T19:47:28;16.70;99.90
6468;DHT22;3267;48.794;9.928;2024-02-21T19:49:54;16.80;99.90
6468;DHT22;3267;48.794;9.928;2024-02-21T19:52:20;16.90;99.90
6468;DHT22;3267;48.794;9.928;2024-02-21T19:54:45;16.80;99.90
6468;DHT22;3267;48.794;9.928;2024-02-21T19:57:11;16.60;99.90
6468;DHT22;3267;48.794;9.928;2024-02-21T19:59:39;17.20;99.90
6468;DHT22;3267;48.794;9.928;2024-02-21T20:02:05;16.30;99.90
6468;DHT22;3267;48.794;9.928;2024-02-21T20:04:32;17.20;99.90
6468;DHT22;3267;48.794;9.928;2024-02-21T20:06:58;15.80;99.90
6468;DHT22;3267;48.794;9.928;2024-02-21T20:09:25;16.90;99.90
6468;DHT22;3267;48.794;9.928;2024-02-21T20:11:54;15.90;99.90
6468;DHT22;3267;48.794;9.928;2024-02-21T20:14:20;16.70;99.90
6468;DHT22;3267;48.794;9.928;2024-02-21T20:16:46;16.80;99.90
6468;DHT22;3267;48.794;9.928;2024-02-21T20:19:17;16.70;99.90
6468;DHT22;3267;48.794;9.928;2024-02-21T20:21:43;16.60;99.90
6468;DHT22;3267;48.794;9.928;2024-02-21T20:24:09;16.90;99.90
6468;DHT22;3267;48.794;9.928;2024-02-21T20:26:38;17.30;99.90
6468;DHT22;3267;48.794;9.928;2024-02-21T20:29:10;16.60;99.90
6468;DHT22;3267;48.794;9.928;2024-02-21T20:31:40;16.50;99.90
6468;DHT22;3267;48.794;9.928;2024-02-21T20:34:09;16.30;99.90
6468;DHT22;3267;48.794;9.928;2024-02-21T20:36:34;16.70;99.90
6468;DHT22;3267;48.794;9.928;2024-02-21T20:39:00;17.00;99.90
6468;DHT22;3267;48.794;9.928;2024-02-21T20:41:26;16.60;99.90
6468;DHT22;3267;48.794;9.928;2024-02-21T20:43:51;16.30;99.90
6468;DHT22;3267;48.794;9.928;2024-02-21T20:46:17;16.50;99.90
6468;DHT22;3267;48.794;9.928;2024-02-21T20:48:43;17.10;99.90
6468;DHT22;3267;48.794;9.928;2024-02-21T20:51:09;16.40;99.90
6468;DHT22;3267;48.794;9.928;2024-02-21T20:53:35;16.40;99.90
6468;DHT22;3267;48.794;9.928;2024-02-21T20:56:00;16.80;99.90
6468;DHT22;3267;48.794;9.928;2024-02-21T20:58:28;16.40;99.90
6468;DHT22;3267;48.794;9.928;2024-02-21T21:00:53;16.20;99.90
6468;DHT22;3267;48.794;9.928;2024-02-21T21:03:19;15.90;99.90
6468;DHT22;3267;48.794;9.928;2024-02-21T21:05:45;16.60;99.90
6468;DHT22;3267;48.794;9.928;2024-02-21T21:08:11;16.00;99.90
6468;DHT22;3267;48.794;9.928;2024-02-21T21:10:38;15.80;99.90
6468;DHT22;3267;48.794;9.928;2024-02-21T21:13:03;15.90;99.90
6468;DHT22;3267;48.794;9.928;2024-02-21T21:15:29;15.80;99.90
6468;DHT22;3267;48.794;9.928;2024-02-21T21:17:56;16.00;99.90
6468;DHT22;3267;48.794;9.928;2024-02-21T21:20:21;16.00;99.90
6468;DHT22;3267;48.794;9.928;2024-02-21T21:22:55;16.50;99.90
6468;DHT22;3267;48.794;9.928;2024-02-21T21:25:21;17.10;99.90
6468;DHT22;3267;48.794;9.928;2024-02-21T21:27:46;15.90;99.90
6468;DHT22;3267;48.794;9.928;2024-02-21T21:30:13;17.30;99.90
6468;DHT22;3267;48.794;9.928;2024-02-21T21:32:38;16.40;99.90
6468;DHT22;3267;48.794;9.928;2024-02-21T21:35:06;16.00;99.90
6468;DHT22;3267;48.794;9.928;2024-02-21T21:37:33;15.80;99.90
6468;DHT22;3267;48.794;9.928;2024-02-21T21:39:59;15.90;99.90